Time;durP1;ratioP1;P1;durP2;ratioP2;P2;SDS_P1;SDS_P2;PMS_P1;PMS_P2;Temp;Humidity;BMP_temperature;BMP_pressure;BME280_temperature;BME280_humidity;BME280_pressure;Samples;Min_cycle;Max_cycle;Signal;HPM_P1;HPM_P2
2022/12/08 00:01:50;;;;;;;;;;;5.70;99.90;;;;;;5069490;28;19929;-76
2022/12/08 00:04:17;;;;;;;;;;;5.70;99.90;;;;;;5070853;28;19928;-77
2022/12/08 00:09:31;;;;;;;;;;;5.80;99.90;;;;;;5073953;28;19978;-78
2022/12/08 00:11:59;;;;;;;;;;;5.80;99.90;;;;;;5075076;28;19928;-78
2022/12/08 00:14:27;;;;;;;;;;;5.80;99.90;;;;;;5073082;28;19928;-77
2022/12/08 00:16:54;;;;;;;;;;;5.80;99.90;;;;;;5079803;28;19943;-79
2022/12/08 00:19:22;;;;;;;;;;;5.80;99.90;;;;;;5087087;28;20012;-77
2022/12/08 00:21:49;;;;;;;;;;;5.80;99.90;;;;;;5082872;28;19928;-75
2022/12/08 00:24:16;;;;;;;;;;;5.80;99.90;;;;;;5073408;28;19932;-77
2022/12/08 00:26:44;;;;;;;;;;;5.80;99.90;;;;;;5073678;28;19932;-75
2022/12/08 00:29:11;;;;;;;;;;;5.70;99.90;;;;;;5070358;28;19934;-76
2022/12/08 00:31:38;;;;;;;;;;;5.70;99.90;;;;;;5072984;28;20443;-76
2022/12/08 00:34:05;;;;;;;;;;;5.70;99.90;;;;;;5072683;28;19972;-76
2022/12/08 00:36:32;;;;;;;;;;;5.60;99.90;;;;;;5071789;28;20499;-78
2022/12/08 00:39:00;;;;;;;;;;;5.60;99.90;;;;;;5072944;28;20356;-77
2022/12/08 00:44:14;;;;;;;;;;;5.60;99.90;;;;;;5075547;28;20310;-78
2022/12/08 00:46:41;;;;;;;;;;;5.60;99.90;;;;;;5079672;28;19924;-78
2022/12/08 00:49:10;;;;;;;;;;;5.60;99.90;;;;;;5076358;28;19929;-77
2022/12/08 00:51:37;;;;;;;;;;;5.60;99.90;;;;;;5074082;28;20393;-78
2022/12/08 00:54:04;;;;;;;;;;;5.50;99.90;;;;;;5072784;28;19924;-78
2022/12/08 00:56:35;;;;;;;;;;;5.50;99.90;;;;;;5076025;28;20065;-78
2022/12/08 00:59:03;;;;;;;;;;;5.40;99.90;;;;;;5073016;28;19951;-77
2022/12/08 01:01:32;;;;;;;;;;;5.40;99.90;;;;;;5088681;28;20379;-78
2022/12/08 01:04:02;;;;;;;;;;;5.40;99.90;;;;;;5074631;28;19929;-77
2022/12/08 01:06:29;;;;;;;;;;;5.40;99.90;;;;;;5082536;28;20042;-78
2022/12/08 01:08:56;;;;;;;;;;;5.40;99.90;;;;;;5073264;28;19936;-78
2022/12/08 01:11:23;;;;;;;;;;;5.40;99.90;;;;;;5066257;28;20388;-79
2022/12/08 01:13:50;;;;;;;;;;;5.40;99.90;;;;;;5074732;28;20184;-78
2022/12/08 01:16:21;;;;;;;;;;;5.50;99.90;;;;;;5075303;28;19928;-78
2022/12/08 01:18:49;;;;;;;;;;;5.50;99.90;;;;;;5076363;28;19924;-77
2022/12/08 01:21:17;;;;;;;;;;;5.50;99.90;;;;;;5086746;28;19924;-78
2022/12/08 01:23:44;;;;;;;;;;;5.50;99.90;;;;;;5072906;28;20350;-77
2022/12/08 01:26:12;;;;;;;;;;;5.50;99.90;;;;;;5074229;28;19928;-78
2022/12/08 01:28:40;;;;;;;;;;;5.10;99.90;;;;;;5075031;28;19950;-78
2022/12/08 01:31:10;;;;;;;;;;;5.50;99.90;;;;;;5073443;28;20368;-79
2022/12/08 01:33:38;;;;;;;;;;;5.50;99.90;;;;;;5072770;28;19924;-77
2022/12/08 01:36:07;;;;;;;;;;;5.50;99.90;;;;;;5069824;28;20111;-78
2022/12/08 01:38:35;;;;;;;;;;;5.50;99.90;;;;;;5066766;28;20384;-77
2022/12/08 01:41:01;;;;;;;;;;;5.50;99.90;;;;;;5069232;28;19937;-77
2022/12/08 01:43:45;;;;;;;;;;;5.50;99.90;;;;;;5060902;28;20226;-77
2022/12/08 01:46:12;;;;;;;;;;;5.50;99.90;;;;;;5068625;28;19951;-77
2022/12/08 01:48:39;;;;;;;;;;;5.50;99.90;;;;;;5081294;28;19928;-78
2022/12/08 01:51:07;;;;;;;;;;;5.50;99.90;;;;;;5077336;28;19955;-77
2022/12/08 01:53:34;;;;;;;;;;;5.50;99.90;;;;;;5071233;28;20415;-77
2022/12/08 01:56:04;;;;;;;;;;;5.50;99.90;;;;;;5071260;28;19951;-78
2022/12/08 01:58:34;;;;;;;;;;;5.50;99.90;;;;;;5070093;28;20348;-77
2022/12/08 02:01:01;;;;;;;;;;;5.50;99.90;;;;;;5071006;28;19925;-78
2022/12/08 02:03:29;;;;;;;;;;;5.50;99.90;;;;;;5072107;28;20517;-77
2022/12/08 02:05:56;;;;;;;;;;;5.50;99.90;;;;;;5081659;28;19947;-78
2022/12/08 02:08:25;;;;;;;;;;;5.50;99.90;;;;;;5071190;28;20018;-78
2022/12/08 02:10:52;;;;;;;;;;;5.50;99.90;;;;;;5070874;28;19978;-78
2022/12/08 02:13:21;;;;;;;;;;;5.50;99.90;;;;;;5069843;28;19932;-78
2022/12/08 02:15:54;;;;;;;;;;;5.50;99.90;;;;;;5070381;28;19929;-78
2022/12/08 02:18:30;;;;;;;;;;;5.50;99.90;;;;;;5071020;28;20275;-77
2022/12/08 02:21:02;;;;;;;;;;;5.60;99.90;;;;;;5068588;28;19932;-78
2022/12/08 02:23:37;;;;;;;;;;;5.60;99.90;;;;;;5069882;28;19928;-78
2022/12/08 02:26:27;;;;;;;;;;;5.60;99.90;;;;;;5069576;28;19925;-78
2022/12/08 02:29:08;;;;;;;;;;;5.60;99.90;;;;;;5054403;28;19928;-78
2022/12/08 02:31:43;;;;;;;;;;;5.60;99.90;;;;;;5069043;28;19955;-78
2022/12/08 02:34:15;;;;;;;;;;;5.70;99.90;;;;;;5069742;28;20018;-78
2022/12/08 02:36:45;;;;;;;;;;;5.70;99.90;;;;;;5070697;28;19993;-78
2022/12/08 02:39:21;;;;;;;;;;;5.70;99.90;;;;;;5070520;28;20007;-78
2022/12/08 02:41:49;;;;;;;;;;;5.70;99.90;;;;;;5061866;28;19950;-77
2022/12/08 02:44:20;;;;;;;;;;;5.70;99.90;;;;;;5069830;28;20342;-77
2022/12/08 02:46:49;;;;;;;;;;;5.80;99.90;;;;;;5073002;28;19929;-78
2022/12/08 02:49:17;;;;;;;;;;;5.80;99.90;;;;;;5078355;28;19928;-77
2022/12/08 02:51:44;;;;;;;;;;;5.80;99.90;;;;;;5066234;28;19928;-77
2022/12/08 02:54:11;;;;;;;;;;;5.80;99.90;;;;;;5071715;28;20396;-78
2022/12/08 02:56:47;;;;;;;;;;;5.80;99.90;;;;;;5066268;28;19924;-78
2022/12/08 02:59:22;;;;;;;;;;;5.80;99.90;;;;;;5068780;28;19925;-77
2022/12/08 03:01:53;;;;;;;;;;;5.80;99.90;;;;;;5078854;28;19925;-77
2022/12/08 03:04:26;;;;;;;;;;;5.80;99.90;;;;;;5074664;28;20033;-78
2022/12/08 03:06:58;;;;;;;;;;;5.80;99.90;;;;;;5070492;28;20365;-78
2022/12/08 03:09:31;;;;;;;;;;;5.80;99.90;;;;;;5070236;28;20014;-78
2022/12/08 03:12:01;;;;;;;;;;;5.80;99.90;;;;;;5063697;28;20296;-78
2022/12/08 03:14:28;;;;;;;;;;;5.70;99.90;;;;;;5068495;28;19932;-78
2022/12/08 03:16:57;;;;;;;;;;;5.80;99.90;;;;;;5075111;28;19932;-77
2022/12/08 03:19:26;;;;;;;;;;;5.80;99.90;;;;;;5065181;28;20047;-78
2022/12/08 03:21:59;;;;;;;;;;;5.80;99.90;;;;;;5066457;28;20637;-77
2022/12/08 03:24:26;;;;;;;;;;;5.80;99.90;;;;;;5067581;28;19925;-76
2022/12/08 03:26:56;;;;;;;;;;;5.80;99.90;;;;;;5067411;28;19954;-76
2022/12/08 03:29:24;;;;;;;;;;;5.80;99.90;;;;;;5066177;28;19954;-76
2022/12/08 03:31:54;;;;;;;;;;;5.90;99.90;;;;;;5065607;28;20307;-77
2022/12/08 03:34:22;;;;;;;;;;;5.90;99.90;;;;;;5066058;28;19924;-77
2022/12/08 03:36:50;;;;;;;;;;;6.10;99.90;;;;;;5063996;28;19928;-77
2022/12/08 03:39:17;;;;;;;;;;;5.90;99.90;;;;;;5068984;28;19929;-77
2022/12/08 03:41:44;;;;;;;;;;;5.90;99.90;;;;;;5069948;28;19955;-77
2022/12/08 03:44:11;;;;;;;;;;;5.90;99.90;;;;;;5071445;28;19929;-77
2022/12/08 03:46:38;;;;;;;;;;;5.90;99.90;;;;;;5072485;28;19985;-78
2022/12/08 03:49:05;;;;;;;;;;;5.80;99.90;;;;;;5079055;28;19930;-77
2022/12/08 03:51:32;;;;;;;;;;;5.90;99.90;;;;;;5076326;28;20626;-77
2022/12/08 03:54:00;;;;;;;;;;;5.90;99.90;;;;;;5077815;28;19925;-77
2022/12/08 03:56:28;;;;;;;;;;;5.90;99.90;;;;;;5072893;28;19994;-77
2022/12/08 03:58:56;;;;;;;;;;;5.80;99.90;;;;;;5072929;28;19978;-78
2022/12/08 04:01:23;;;;;;;;;;;5.80;99.90;;;;;;5075308;28;19981;-78
2022/12/08 04:03:50;;;;;;;;;;;5.80;99.90;;;;;;5073268;28;20237;-78
2022/12/08 04:06:17;;;;;;;;;;;5.80;99.90;;;;;;5072239;28;19936;-78
2022/12/08 04:08:44;;;;;;;;;;;5.80;99.90;;;;;;5081878;28;19954;-78
2022/12/08 04:11:13;;;;;;;;;;;5.80;99.90;;;;;;5065404;28;20437;-78
2022/12/08 04:13:41;;;;;;;;;;;5.80;99.90;;;;;;5071131;28;19928;-82
2022/12/08 04:16:14;;;;;;;;;;;5.80;99.90;;;;;;5078238;28;20001;-79
2022/12/08 04:18:41;;;;;;;;;;;5.80;99.90;;;;;;5068652;28;20366;-78
2022/12/08 04:21:08;;;;;;;;;;;5.80;99.90;;;;;;5072981;28;19937;-79
2022/12/08 04:23:35;;;;;;;;;;;5.80;99.90;;;;;;5074250;28;19936;-79
2022/12/08 04:26:02;;;;;;;;;;;5.80;99.90;;;;;;5075848;28;19994;-79
2022/12/08 04:28:30;;;;;;;;;;;5.80;99.90;;;;;;5074145;28;19987;-79
2022/12/08 04:31:00;;;;;;;;;;;5.90;99.90;;;;;;5072993;28;19951;-79
2022/12/08 04:33:27;;;;;;;;;;;5.80;99.90;;;;;;5074103;28;19928;-79
2022/12/08 04:35:54;;;;;;;;;;;5.80;99.90;;;;;;5074686;28;19933;-79
2022/12/08 04:38:21;;;;;;;;;;;5.80;99.90;;;;;;5073732;28;19934;-79
2022/12/08 04:40:48;;;;;;;;;;;5.80;99.90;;;;;;5071720;28;19929;-77
2022/12/08 04:43:15;;;;;;;;;;;5.80;99.90;;;;;;5072273;28;19932;-79
2022/12/08 04:45:43;;;;;;;;;;;5.80;99.90;;;;;;5073835;28;20398;-79
2022/12/08 04:48:11;;;;;;;;;;;5.80;99.90;;;;;;5076985;28;19940;-80
2022/12/08 04:50:39;;;;;;;;;;;5.80;99.90;;;;;;5075676;28;19978;-81
2022/12/08 04:53:05;;;;;;;;;;;5.80;99.90;;;;;;5074688;28;19932;-80
2022/12/08 04:55:32;;;;;;;;;;;5.80;99.90;;;;;;5073835;28;19955;-81
2022/12/08 04:57:59;;;;;;;;;;;5.80;99.90;;;;;;5074521;28;19982;-80
2022/12/08 05:00:26;;;;;;;;;;;5.90;99.90;;;;;;5073852;28;20354;-79
2022/12/08 05:02:54;;;;;;;;;;;5.80;99.90;;;;;;5071903;28;19935;-80
2022/12/08 05:05:21;;;;;;;;;;;5.80;99.90;;;;;;5073137;28;19928;-79
2022/12/08 05:07:48;;;;;;;;;;;5.80;99.90;;;;;;5073785;28;20300;-79
2022/12/08 05:10:16;;;;;;;;;;;5.70;99.90;;;;;;5081973;28;20355;-78
2022/12/08 05:12:43;;;;;;;;;;;5.70;99.90;;;;;;5068304;28;19936;-79
2022/12/08 05:15:10;;;;;;;;;;;5.70;99.90;;;;;;5069285;28;19978;-78
2022/12/08 05:17:37;;;;;;;;;;;5.70;99.90;;;;;;5067359;28;19936;-78
2022/12/08 05:20:06;;;;;;;;;;;5.70;99.90;;;;;;5074578;28;19924;-78
2022/12/08 05:22:32;;;;;;;;;;;5.70;99.90;;;;;;5066704;28;19979;-78
2022/12/08 05:24:59;;;;;;;;;;;5.70;99.90;;;;;;5073218;28;20051;-78
2022/12/08 05:42:57;;;;;;;;;;;6.20;99.90;;;;;;4986459;28;2135433;-78
2022/12/08 05:45:24;;;;;;;;;;;6.00;99.90;;;;;;5060494;28;19933;-79
2022/12/08 05:47:52;;;;;;;;;;;5.90;99.90;;;;;;5048993;28;19929;-80
2022/12/08 05:50:19;;;;;;;;;;;5.90;99.90;;;;;;5049747;28;19925;-79
2022/12/08 05:52:46;;;;;;;;;;;5.90;99.90;;;;;;5033414;28;20401;-78
2022/12/08 05:55:13;;;;;;;;;;;5.80;99.90;;;;;;5049339;28;20407;-79
2022/12/08 05:57:40;;;;;;;;;;;5.80;99.90;;;;;;5048913;28;19933;-79
2022/12/08 06:00:09;;;;;;;;;;;5.80;99.90;;;;;;5050083;28;19959;-80
2022/12/08 06:02:39;;;;;;;;;;;5.70;99.90;;;;;;5051014;28;20406;-79
2022/12/08 06:05:07;;;;;;;;;;;5.70;99.90;;;;;;5051582;28;19935;-82
2022/12/08 06:07:34;;;;;;;;;;;5.70;99.90;;;;;;5056581;28;19995;-80
2022/12/08 06:10:01;;;;;;;;;;;5.70;99.90;;;;;;5051983;28;19925;-80
2022/12/08 06:12:28;;;;;;;;;;;5.70;99.90;;;;;;5049505;28;20546;-79
2022/12/08 06:14:55;;;;;;;;;;;5.70;99.90;;;;;;5050593;28;19928;-77
2022/12/08 06:20:06;;;;;;;;;;;5.70;99.90;;;;;;5204325;23;19925;-77
2022/12/08 06:22:33;;;;;;;;;;;5.70;99.90;;;;;;5005990;28;19926;-76
2022/12/08 06:25:00;;;;;;;;;;;5.70;99.90;;;;;;5010972;28;20670;-76
2022/12/08 06:27:27;;;;;;;;;;;5.60;99.90;;;;;;5041601;23;19926;-87
2022/12/08 06:29:54;;;;;;;;;;;5.60;99.90;;;;;;5006213;28;19933;-87
2022/12/08 06:32:21;;;;;;;;;;;5.70;99.90;;;;;;5006666;28;19913;-90
2022/12/08 06:34:50;;;;;;;;;;;5.60;99.90;;;;;;5027749;28;19933;-90
2022/12/08 06:37:18;;;;;;;;;;;5.60;99.90;;;;;;4995170;28;19965;-90
2022/12/08 06:39:46;;;;;;;;;;;5.60;99.90;;;;;;4980868;28;20448;-87
2022/12/08 06:44:57;;;;;;;;;;;5.60;99.90;;;;;;4980341;28;20561;-87
2022/12/08 06:47:24;;;;;;;;;;;5.60;99.90;;;;;;4987146;28;19922;-88
2022/12/08 06:49:51;;;;;;;;;;;5.60;99.90;;;;;;4984317;28;19930;-82
2022/12/08 06:52:19;;;;;;;;;;;5.60;99.90;;;;;;4994554;28;19929;-83
2022/12/08 06:54:46;;;;;;;;;;;5.60;99.90;;;;;;4996611;28;19926;-86
2022/12/08 06:57:13;;;;;;;;;;;5.60;99.90;;;;;;4979799;28;20033;-83
2022/12/08 06:59:40;;;;;;;;;;;5.50;99.90;;;;;;5000816;28;19980;-84
2022/12/08 07:02:06;;;;;;;;;;;5.50;99.90;;;;;;4999933;28;19929;-85
2022/12/08 07:04:33;;;;;;;;;;;5.50;99.90;;;;;;4981884;28;19988;-84
2022/12/08 07:07:00;;;;;;;;;;;5.50;99.90;;;;;;4981307;28;19933;-84
2022/12/08 07:09:28;;;;;;;;;;;5.50;99.90;;;;;;4997202;28;19937;-84
2022/12/08 07:11:57;;;;;;;;;;;5.50;99.90;;;;;;4989580;28;20005;-85
2022/12/08 07:14:24;;;;;;;;;;;5.50;99.90;;;;;;5002793;28;19914;-86
2022/12/08 07:16:51;;;;;;;;;;;5.50;99.90;;;;;;5014430;28;19965;-86
2022/12/08 07:19:27;;;;;;;;;;;5.50;99.90;;;;;;5009257;28;20388;-84
2022/12/08 07:21:58;;;;;;;;;;;5.50;99.90;;;;;;5000271;28;19929;-85
2022/12/08 07:24:38;;;;;;;;;;;5.50;99.90;;;;;;4990442;28;19930;-85
2022/12/08 07:27:25;;;;;;;;;;;5.50;99.90;;;;;;5004863;28;19959;-86
2022/12/08 07:29:53;;;;;;;;;;;5.40;99.90;;;;;;4981832;28;20557;-85
2022/12/08 07:32:23;;;;;;;;;;;5.40;99.90;;;;;;4987840;28;19930;-87
2022/12/08 07:35:01;;;;;;;;;;;5.40;99.90;;;;;;5002423;28;20059;-87
2022/12/08 07:37:36;;;;;;;;;;;5.40;99.90;;;;;;4989459;28;20337;-86
2022/12/08 07:40:10;;;;;;;;;;;5.50;99.90;;;;;;5000354;28;19980;-87
2022/12/08 07:42:45;;;;;;;;;;;5.40;99.90;;;;;;4999202;28;19936;-85
2022/12/08 07:45:12;;;;;;;;;;;5.40;99.90;;;;;;4983057;28;20004;-86
2022/12/08 07:47:39;;;;;;;;;;;5.30;99.90;;;;;;4993326;28;20368;-86
2022/12/08 07:50:08;;;;;;;;;;;5.30;99.90;;;;;;4995901;28;20367;-84
2022/12/08 07:52:39;;;;;;;;;;;5.30;99.90;;;;;;4999639;28;19992;-86
2022/12/08 07:55:09;;;;;;;;;;;5.30;99.90;;;;;;5008082;28;19953;-84
2022/12/08 07:57:43;;;;;;;;;;;5.30;99.90;;;;;;4982737;28;20021;-84
2022/12/08 08:00:17;;;;;;;;;;;5.20;99.90;;;;;;4989147;28;19934;-84
2022/12/08 08:02:47;;;;;;;;;;;5.20;99.90;;;;;;4995649;28;19937;-86
2022/12/08 08:05:23;;;;;;;;;;;5.30;99.90;;;;;;4996442;28;19929;-87
2022/12/08 08:07:52;;;;;;;;;;;5.30;99.90;;;;;;4981893;28;19934;-85
2022/12/08 08:10:25;;;;;;;;;;;5.30;99.90;;;;;;5006837;28;20005;-87
2022/12/08 08:12:53;;;;;;;;;;;5.30;99.90;;;;;;4981468;28;19933;-85
2022/12/08 08:15:23;;;;;;;;;;;5.30;99.90;;;;;;5001217;28;19953;-86
2022/12/08 08:17:51;;;;;;;;;;;5.20;99.90;;;;;;4997699;28;19930;-85
2022/12/08 08:20:24;;;;;;;;;;;5.30;99.90;;;;;;5004906;28;19926;-87
2022/12/08 08:22:56;;;;;;;;;;;5.30;99.90;;;;;;4991637;28;19930;-86
2022/12/08 08:25:27;;;;;;;;;;;5.30;99.90;;;;;;5005091;28;19934;-88
2022/12/08 08:27:55;;;;;;;;;;;5.30;99.90;;;;;;4981482;28;19930;-88
2022/12/08 08:30:23;;;;;;;;;;;5.30;99.90;;;;;;4981759;28;20038;-90
2022/12/08 08:32:53;;;;;;;;;;;5.50;99.90;;;;;;4979270;28;19926;-90
2022/12/08 08:35:21;;;;;;;;;;;5.30;99.90;;;;;;4981269;28;20400;-88
2022/12/08 08:37:48;;;;;;;;;;;5.30;99.90;;;;;;4993408;28;19945;-91
2022/12/08 08:40:14;;;;;;;;;;;5.30;99.90;;;;;;5016622;28;19914;-89
2022/12/08 08:42:47;;;;;;;;;;;5.30;99.90;;;;;;4995372;28;20193;-88
2022/12/08 08:45:15;;;;;;;;;;;5.30;99.90;;;;;;4990109;28;19961;-87
2022/12/08 08:47:41;;;;;;;;;;;5.30;99.90;;;;;;5010297;28;19932;-88
2022/12/08 08:50:10;;;;;;;;;;;5.30;99.90;;;;;;4987364;28;20380;-90
2022/12/08 08:52:42;;;;;;;;;;;5.30;99.90;;;;;;4984528;28;19933;-91
2022/12/08 08:55:09;;;;;;;;;;;5.30;99.90;;;;;;4987035;28;19957;-90
2022/12/08 08:57:42;;;;;;;;;;;5.30;99.90;;;;;;4994229;28;20002;-89
2022/12/08 09:00:11;;;;;;;;;;;5.30;99.90;;;;;;4986234;28;19989;-89
2022/12/08 09:02:56;;;;;;;;;;;5.40;99.90;;;;;;4986312;28;19930;-90
2022/12/08 09:05:26;;;;;;;;;;;5.40;99.90;;;;;;4983010;28;19925;-90
2022/12/08 09:07:55;;;;;;;;;;;5.50;99.90;;;;;;4983576;28;19933;-90
2022/12/08 09:10:30;;;;;;;;;;;5.60;99.90;;;;;;4983488;28;19930;-92
2022/12/08 09:13:00;;;;;;;;;;;5.60;99.90;;;;;;4982944;28;19926;-92
2022/12/08 09:15:45;;;;;;;;;;;5.70;99.90;;;;;;4996754;28;19929;-92
2022/12/08 09:21:48;;;;;;;;;;;5.70;99.90;;;;;;5017934;28;19969;-90
2022/12/08 09:27:02;;;;;;;;;;;5.70;99.90;;;;;;4981866;28;19928;-91
2022/12/08 09:29:36;;;;;;;;;;;5.70;99.90;;;;;;4982670;28;19925;-89
2022/12/08 09:32:10;;;;;;;;;;;5.70;99.90;;;;;;4980825;28;20025;-90
2022/12/08 09:34:40;;;;;;;;;;;5.70;99.90;;;;;;4978942;28;20398;-90
2022/12/08 09:37:10;;;;;;;;;;;5.70;99.90;;;;;;4978557;28;19930;-90
2022/12/08 09:39:37;;;;;;;;;;;5.70;99.90;;;;;;4980212;28;19948;-88
2022/12/08 09:42:06;;;;;;;;;;;5.70;99.90;;;;;;4980190;28;20070;-89
2022/12/08 09:44:46;;;;;;;;;;;5.70;99.90;;;;;;4979597;28;19933;-90
2022/12/08 09:47:17;;;;;;;;;;;5.70;99.90;;;;;;4978876;28;20269;-90
2022/12/08 09:49:48;;;;;;;;;;;7.50;99.90;;;;;;4985184;28;19957;-87
2022/12/08 09:52:20;;;;;;;;;;;5.70;99.90;;;;;;4977434;28;19929;-88
2022/12/08 09:54:47;;;;;;;;;;;5.70;99.90;;;;;;4995685;28;20009;-86
2022/12/08 09:57:17;;;;;;;;;;;5.70;99.90;;;;;;4979976;28;19929;-88
2022/12/08 09:59:44;;;;;;;;;;;5.60;99.90;;;;;;4966700;28;19926;-85
2022/12/08 10:02:19;;;;;;;;;;;5.60;99.90;;;;;;4963207;28;19945;-87
2022/12/08 10:04:46;;;;;;;;;;;5.60;99.90;;;;;;4972478;28;19980;-85
2022/12/08 10:07:16;;;;;;;;;;;6.60;99.90;;;;;;4982371;28;19937;-86
2022/12/08 10:09:46;;;;;;;;;;;5.50;99.90;;;;;;4972727;28;19934;-86
2022/12/08 10:12:17;;;;;;;;;;;5.50;99.90;;;;;;4983442;28;19926;-89
2022/12/08 10:14:47;;;;;;;;;;;5.50;99.90;;;;;;4977328;28;19968;-86
2022/12/08 10:17:18;;;;;;;;;;;5.40;99.90;;;;;;4963355;28;19926;-87
2022/12/08 10:19:45;;;;;;;;;;;5.40;99.90;;;;;;4970309;28;19957;-86
2022/12/08 10:22:17;;;;;;;;;;;5.40;99.90;;;;;;4983036;28;19973;-88
2022/12/08 10:25:00;;;;;;;;;;;5.30;99.90;;;;;;4982430;28;19942;-89
2022/12/08 10:27:36;;;;;;;;;;;5.20;99.90;;;;;;4984016;28;19932;-88
2022/12/08 10:30:06;;;;;;;;;;;5.20;99.90;;;;;;4989445;28;19988;-86
2022/12/08 10:32:34;;;;;;;;;;;5.20;99.90;;;;;;4978266;28;19926;-86
2022/12/08 10:35:03;;;;;;;;;;;5.20;99.90;;;;;;4969427;28;19930;-88
2022/12/08 10:37:30;;;;;;;;;;;5.30;99.90;;;;;;4972908;28;19930;-87
2022/12/08 10:40:05;;;;;;;;;;;5.30;99.90;;;;;;4972193;28;19977;-86
2022/12/08 10:42:37;;;;;;;;;;;5.40;99.90;;;;;;4974940;28;19932;-85
2022/12/08 10:45:15;;;;;;;;;;;5.40;99.90;;;;;;4966610;28;19954;-85
2022/12/08 10:47:43;;;;;;;;;;;5.50;99.90;;;;;;4963742;28;19938;-86
2022/12/08 10:50:21;;;;;;;;;;;5.60;99.90;;;;;;4960518;28;19990;-84
2022/12/08 10:52:54;;;;;;;;;;;5.60;99.90;;;;;;4986810;28;19937;-86
2022/12/08 10:55:23;;;;;;;;;;;5.80;99.90;;;;;;4963578;28;19937;-86
2022/12/08 10:57:50;;;;;;;;;;;3.20;99.90;;;;;;4976102;28;20021;-85
2022/12/08 11:00:17;;;;;;;;;;;6.20;99.90;;;;;;4978553;28;20009;-86
2022/12/08 11:02:55;;;;;;;;;;;6.20;99.90;;;;;;4969970;28;19973;-84
2022/12/08 11:05:23;;;;;;;;;;;6.20;99.90;;;;;;4975034;28;19965;-86
2022/12/08 11:07:52;;;;;;;;;;;6.30;99.90;;;;;;4967436;28;19926;-84
2022/12/08 11:10:20;;;;;;;;;;;6.30;99.90;;;;;;4960454;28;19930;-86
2022/12/08 11:12:49;;;;;;;;;;;6.40;99.90;;;;;;4961338;28;19937;-86
2022/12/08 11:15:17;;;;;;;;;;;6.50;99.90;;;;;;4977298;28;19930;-87
2022/12/08 11:17:48;;;;;;;;;;;6.50;99.90;;;;;;4966690;28;19937;-89
2022/12/08 11:20:22;;;;;;;;;;;6.80;99.90;;;;;;4997669;28;19914;-89
2022/12/08 11:22:53;;;;;;;;;;;6.40;99.90;;;;;;4999706;28;19913;-87
2022/12/08 11:25:21;;;;;;;;;;;6.40;99.90;;;;;;4980239;28;19937;-85
2022/12/08 11:27:50;;;;;;;;;;;6.30;99.90;;;;;;4984689;28;19965;-87
2022/12/08 11:30:20;;;;;;;;;;;6.20;99.90;;;;;;4968496;28;19927;-87
2022/12/08 11:32:48;;;;;;;;;;;6.10;99.90;;;;;;4967189;28;19986;-89
2022/12/08 11:35:18;;;;;;;;;;;6.10;99.90;;;;;;4972883;28;19930;-87
2022/12/08 11:37:45;;;;;;;;;;;6.00;99.90;;;;;;4971729;28;19927;-86
2022/12/08 11:40:16;;;;;;;;;;;6.00;99.90;;;;;;4978700;28;19958;-85
2022/12/08 11:42:50;;;;;;;;;;;5.90;99.90;;;;;;4986909;28;19930;-85
2022/12/08 11:45:21;;;;;;;;;;;6.00;99.90;;;;;;4979470;28;19926;-85
2022/12/08 11:47:51;;;;;;;;;;;6.00;99.90;;;;;;4979520;28;19930;-88
2022/12/08 11:50:20;;;;;;;;;;;6.00;99.90;;;;;;4977790;28;19948;-86
2022/12/08 11:52:48;;;;;;;;;;;6.00;99.90;;;;;;4979263;28;19965;-86
2022/12/08 11:55:26;;;;;;;;;;;6.00;99.90;;;;;;4988538;28;19993;-87
2022/12/08 11:57:54;;;;;;;;;;;6.00;99.90;;;;;;4966536;28;19998;-87
2022/12/08 12:00:22;;;;;;;;;;;6.10;99.90;;;;;;4963091;28;20001;-85
2022/12/08 12:02:52;;;;;;;;;;;6.10;99.90;;;;;;4961222;28;20320;-85
2022/12/08 12:05:26;;;;;;;;;;;6.40;99.90;;;;;;4964342;28;20030;-85
2022/12/08 12:07:58;;;;;;;;;;;6.00;99.90;;;;;;4959973;28;19930;-86
2022/12/08 12:10:31;;;;;;;;;;;6.00;99.90;;;;;;4965167;28;20034;-86
2022/12/08 12:13:15;;;;;;;;;;;6.00;99.90;;;;;;4961182;28;20441;-87
2022/12/08 12:15:57;;;;;;;;;;;6.00;99.90;;;;;;4970581;28;20290;-87
2022/12/08 12:18:27;;;;;;;;;;;6.00;99.90;;;;;;4966894;28;19942;-85
2022/12/08 12:20:56;;;;;;;;;;;5.90;99.90;;;;;;4977752;28;19976;-86
2022/12/08 12:23:24;;;;;;;;;;;5.90;99.90;;;;;;4959726;28;19926;-85
2022/12/08 12:25:57;;;;;;;;;;;5.80;99.90;;;;;;4985659;28;20058;-87
2022/12/08 12:28:24;;;;;;;;;;;5.80;99.90;;;;;;4975708;28;20129;-87
2022/12/08 12:30:56;;;;;;;;;;;5.80;99.90;;;;;;4991274;28;19926;-87
2022/12/08 12:33:23;;;;;;;;;;;;;;;;;;4980842;28;20658;-87
2022/12/08 12:35:55;;;;;;;;;;;5.60;99.90;;;;;;4961105;28;19930;-85
2022/12/08 12:41:09;;;;;;;;;;;5.60;99.90;;;;;;4978128;28;19930;-86
2022/12/08 12:43:37;;;;;;;;;;;5.50;99.90;;;;;;4967439;28;19953;-86
2022/12/08 12:46:19;;;;;;;;;;;5.40;99.90;;;;;;4959598;28;19926;-86
2022/12/08 12:48:46;;;;;;;;;;;5.40;99.90;;;;;;4933821;28;19993;-86
2022/12/08 12:51:30;;;;;;;;;;;5.40;99.90;;;;;;4974452;28;19929;-86
2022/12/08 12:54:19;;;;;;;;;;;5.40;99.90;;;;;;4969875;28;19990;-87
2022/12/08 12:56:48;;;;;;;;;;;5.40;99.90;;;;;;4970230;28;19930;-88
2022/12/08 12:59:29;;;;;;;;;;;5.40;99.90;;;;;;4973210;28;19933;-86
2022/12/08 13:01:57;;;;;;;;;;;5.40;99.90;;;;;;4947198;28;19937;-88
2022/12/08 13:04:31;;;;;;;;;;;8.20;99.90;;;;;;4978654;28;19946;-86
2022/12/08 13:06:59;;;;;;;;;;;5.30;99.90;;;;;;4981000;28;19914;-87
2022/12/08 13:09:33;;;;;;;;;;;5.30;99.90;;;;;;4994945;28;19989;-88
2022/12/08 13:12:01;;;;;;;;;;;5.30;99.90;;;;;;4970902;28;19930;-88
2022/12/08 13:14:29;;;;;;;;;;;5.30;99.90;;;;;;5001728;28;19936;-87
2022/12/08 13:16:57;;;;;;;;;;;5.30;99.90;;;;;;4992353;28;20078;-87
2022/12/08 13:19:25;;;;;;;;;;;5.30;99.90;;;;;;4965190;28;19973;-86
2022/12/08 13:21:54;;;;;;;;;;;5.30;99.90;;;;;;4969913;28;19969;-88
2022/12/08 13:24:33;;;;;;;;;;;5.30;99.90;;;;;;4989537;28;20461;-87
2022/12/08 13:27:20;;;;;;;;;;;5.30;99.90;;;;;;4978907;28;19936;-84
2022/12/08 13:30:07;;;;;;;;;;;5.30;99.90;;;;;;4960119;28;19930;-86
2022/12/08 13:32:50;;;;;;;;;;;5.20;99.90;;;;;;4965110;28;19930;-86
2022/12/08 13:35:23;;;;;;;;;;;5.20;99.90;;;;;;4972290;28;19989;-86
2022/12/08 13:37:50;;;;;;;;;;;5.20;99.90;;;;;;4960182;28;19931;-85
2022/12/08 13:40:19;;;;;;;;;;;5.20;99.90;;;;;;4964522;28;19934;-86
2022/12/08 13:42:47;;;;;;;;;;;5.10;99.90;;;;;;4982992;28;19930;-88
2022/12/08 13:45:16;;;;;;;;;;;5.10;99.90;;;;;;4958155;28;19930;-88
2022/12/08 13:47:45;;;;;;;;;;;5.10;99.90;;;;;;4973947;28;20147;-85
2022/12/08 13:50:19;;;;;;;;;;;5.10;99.90;;;;;;4966980;28;19930;-86
2022/12/08 13:52:51;;;;;;;;;;;5.20;99.90;;;;;;4960878;28;20033;-85
2022/12/08 13:55:20;;;;;;;;;;;5.10;99.90;;;;;;4970719;28;19980;-85
2022/12/08 13:57:48;;;;;;;;;;;5.20;99.90;;;;;;4964194;28;19941;-85
2022/12/08 14:00:16;;;;;;;;;;;5.20;99.90;;;;;;4985398;28;20022;-83
2022/12/08 14:02:45;;;;;;;;;;;5.30;99.90;;;;;;4974152;28;19930;-84
2022/12/08 14:05:14;;;;;;;;;;;5.30;99.90;;;;;;4966599;28;19915;-86
2022/12/08 14:07:41;;;;;;;;;;;5.30;99.90;;;;;;4980570;28;19914;-85
2022/12/08 14:10:14;;;;;;;;;;;5.30;99.90;;;;;;4975079;28;19914;-85
2022/12/08 14:12:44;;;;;;;;;;;5.30;99.90;;;;;;4970121;28;19926;-86
2022/12/08 14:15:12;;;;;;;;;;;5.30;99.90;;;;;;4994794;28;19988;-85
2022/12/08 14:17:40;;;;;;;;;;;5.30;99.90;;;;;;4980382;28;19925;-85
2022/12/08 14:20:31;;;;;;;;;;;5.30;99.90;;;;;;4982977;28;19914;-85
2022/12/08 14:22:58;;;;;;;;;;;5.30;99.90;;;;;;4984104;28;19957;-87
2022/12/08 14:25:27;;;;;;;;;;;5.30;99.90;;;;;;4983754;28;19925;-86
2022/12/08 14:27:56;;;;;;;;;;;5.30;99.90;;;;;;4986015;28;19961;-86
2022/12/08 14:30:25;;;;;;;;;;;5.30;99.90;;;;;;5002482;28;19988;-87
2022/12/08 14:32:55;;;;;;;;;;;5.40;99.90;;;;;;4999641;28;19925;-90
2022/12/08 14:35:23;;;;;;;;;;;5.40;99.90;;;;;;4988935;28;19954;-88
2022/12/08 14:37:54;;;;;;;;;;;5.40;99.90;;;;;;4987329;28;19949;-87
2022/12/08 14:40:22;;;;;;;;;;;5.50;99.90;;;;;;4962999;28;20005;-87
2022/12/08 14:42:52;;;;;;;;;;;5.50;99.90;;;;;;4996661;28;19966;-85
2022/12/08 14:45:20;;;;;;;;;;;5.40;99.90;;;;;;4976570;28;19933;-86
2022/12/08 14:47:47;;;;;;;;;;;5.40;99.90;;;;;;4972484;28;19926;-85
2022/12/08 14:50:32;;;;;;;;;;;5.40;99.90;;;;;;4978268;28;20033;-86
2022/12/08 14:53:00;;;;;;;;;;;5.40;99.90;;;;;;4970165;28;19934;-86
2022/12/08 14:55:27;;;;;;;;;;;5.40;99.90;;;;;;4972525;28;19968;-85
2022/12/08 14:57:56;;;;;;;;;;;5.40;99.90;;;;;;4965478;28;19933;-86
2022/12/08 15:00:23;;;;;;;;;;;5.40;99.90;;;;;;4974790;28;20040;-86
2022/12/08 15:02:51;;;;;;;;;;;5.40;99.90;;;;;;4987929;28;19930;-86
2022/12/08 15:05:21;;;;;;;;;;;5.50;99.90;;;;;;4992783;28;19921;-85
2022/12/08 15:07:52;;;;;;;;;;;5.50;99.90;;;;;;4980575;28;20576;-85
2022/12/08 15:10:22;;;;;;;;;;;5.50;99.90;;;;;;4959833;28;19980;-87
2022/12/08 15:13:01;;;;;;;;;;;5.60;99.90;;;;;;4958920;28;19930;-87
2022/12/08 15:15:29;;;;;;;;;;;5.60;99.90;;;;;;4959715;28;19933;-88
2022/12/08 15:18:04;;;;;;;;;;;5.60;99.90;;;;;;4968679;28;20015;-87
2022/12/08 15:20:40;;;;;;;;;;;5.60;99.90;;;;;;4960036;28;19933;-87
2022/12/08 15:23:17;;;;;;;;;;;5.50;99.90;;;;;;4976552;28;19944;-86